Dati stazioni meteo Molise - Rete MeteoNetwork


Regione Molise - Nazionale

Dati realtime - Dati giornalieri

Sfoglia tabella
Regione selezionata: Molise
Filtra dati per regione

Stazione Prov. Temperatura Umidità Dewpoint Pioggia Rateo Pioggia Vento Pressione Aggiorn.
Campobasso CB 18.4°C 70% 12.8°C 0 mm 0 mm/h 0 km/h 1012.4 hPa 04:01
Campitello Matese CB 13.9°C 89% 12.2°C 0 mm 0 mm/h 3 km/h 1013.4 hPa 04:23
Baranello CB 20.1°C 68% 13.9°C 0 mm 0 mm/h 0 km/h 1015.2 hPa 04:23
Termoli CB 22.4°C 67% 16.1°C 0 mm 0 mm/h 0 km/h 1011.1 hPa 04:23
Isernia IS 19.4°C 88% 17.4°C 0 mm 0 mm/h 3.2 km/h 1015.1 hPa 04:15
Colletorto CB 19.7°C 76% 15.3°C 0 mm 0 mm/h 16.9 km/h 1010.6 hPa 04:23
Capracotta IS 14.7°C 74% 10°C 0 mm 0 mm/h 19 km/h 1007.2 hPa 04:23
Campobasso CB 18.4°C 75% 13.9°C 0 mm 0 mm/h 16 km/h 1007.5 hPa 04:23
Campodipietra CB 19.8°C 68% 13.9°C 0 mm 0 mm/h 0 km/h 1012.1 hPa 04:23
Termoli CB 24.7°C 60% 16.1°C 0 mm 0 mm/h 6 km/h 1012.2 hPa 04:23
Campobasso CB 18.9°C 71% 13.3°C 0 mm 0 mm/h 10 km/h 1013.2 hPa 04:23
Petacciato CB 23.8°C 66% 16.7°C 0 mm 0 mm/h 6 km/h 1015.9 hPa 04:00
Vinchiaturo CB 14.3°C 88% 12.2°C 0 mm 0 mm/h 2 km/h 1014.4 hPa 04:19
Ururi CB 23.3°C 55% 13.8°C 0 mm 0 mm/h 1.8 km/h 1013.1 hPa 04:23
Trivento CB 20°C 73% 15°C 0 mm 0 mm/h 31.3 km/h 1010.7 hPa 04:20
Frosolone IS 18.1°C 80% 14.6°C 0 mm 0 mm/h 11.2 km/h 1012.5 hPa 04:20
Agnone IS 17.6°C 83% 14.7°C 0 mm 0 mm/h 7.2 km/h 1014.8 hPa 04:23
Castel San Vincenzo IS 16°C 92% 14.7°C 0 mm 0 mm/h 1.1 km/h 1015.9 hPa 04:23
Ripalimosani CB 19.9°C 68% 13.8°C 0 mm 0 mm/h 13 km/h 1015.7 hPa 04:23
Sepino CB 19.4°C 73% 14.4°C 0 mm 0 mm/h 7.2 km/h 1013.1 hPa 04:23
Cercemaggiore CB 17.1°C 78% 13.2°C 0 mm 0 mm/h 27 km/h 1011.9 hPa 04:19
Agnone IS 17°C 82% 13.9°C 0 mm 0 mm/h 36.7 km/h 1013.7 hPa 04:21